sensor_id;sensor_type;location;lat;lon;timestamp;pressure;altitude;pressure_sealevel;temperature;humidity
9009;BME280;62813;51.424;6.762;2022-11-15T00:00:48;100699.50;;;10.95;80.31
9009;BME280;62813;51.424;6.762;2022-11-15T00:03:20;100694.16;;;10.98;79.16
9009;BME280;62813;51.424;6.762;2022-11-15T00:05:47;100685.75;;;10.93;79.07
9009;BME280;62813;51.424;6.762;2022-11-15T00:08:14;100700.72;;;10.86;78.82
9009;BME280;62813;51.424;6.762;2022-11-15T00:10:40;100686.47;;;10.75;78.73
9009;BME280;62813;51.424;6.762;2022-11-15T00:13:08;100688.63;;;10.65;79.09
9009;BME280;62813;51.424;6.762;2022-11-15T00:15:36;100688.13;;;10.57;79.77
9009;BME280;62813;51.424;6.762;2022-11-15T00:18:04;100689.22;;;10.51;80.19
9009;BME280;62813;51.424;6.762;2022-11-15T00:20:33;100690.81;;;10.54;80.29
9009;BME280;62813;51.424;6.762;2022-11-15T00:23:00;100691.88;;;10.50;80.62
9009;BME280;62813;51.424;6.762;2022-11-15T00:25:26;100692.16;;;10.42;81.04
9009;BME280;62813;51.424;6.762;2022-11-15T00:27:57;100687.88;;;10.41;81.25
9009;BME280;62813;51.424;6.762;2022-11-15T00:30:24;100687.19;;;10.38;81.78
9009;BME280;62813;51.424;6.762;2022-11-15T00:32:51;100689.00;;;10.36;82.08
9009;BME280;62813;51.424;6.762;2022-11-15T00:35:18;100681.09;;;10.39;82.12
9009;BME280;62813;51.424;6.762;2022-11-15T00:37:45;100679.47;;;10.36;82.33
9009;BME280;62813;51.424;6.762;2022-11-15T00:40:13;100681.16;;;10.37;82.56
9009;BME280;62813;51.424;6.762;2022-11-15T00:42:41;100682.09;;;10.34;82.49
9009;BME280;62813;51.424;6.762;2022-11-15T00:45:08;100684.53;;;10.39;82.82
9009;BME280;62813;51.424;6.762;2022-11-15T00:47:35;100675.81;;;10.40;83.17
9009;BME280;62813;51.424;6.762;2022-11-15T00:50:02;100677.50;;;10.41;83.19
9009;BME280;62813;51.424;6.762;2022-11-15T00:52:29;100676.56;;;10.44;83.29
9009;BME280;62813;51.424;6.762;2022-11-15T00:54:56;100676.56;;;10.44;83.24
9009;BME280;62813;51.424;6.762;2022-11-15T00:57:22;100670.38;;;10.46;83.27
9009;BME280;62813;51.424;6.762;2022-11-15T00:59:49;100672.06;;;10.47;83.75
9009;BME280;62813;51.424;6.762;2022-11-15T01:02:19;100672.81;;;10.51;83.94
9009;BME280;62813;51.424;6.762;2022-11-15T01:04:45;100666.63;;;10.53;83.60
9009;BME280;62813;51.424;6.762;2022-11-15T01:07:12;100676.09;;;10.54;83.91
9009;BME280;62813;51.424;6.762;2022-11-15T01:09:39;100665.66;;;10.56;83.92
9009;BME280;62813;51.424;6.762;2022-11-15T01:12:05;100664.69;;;10.58;84.29
9009;BME280;62813;51.424;6.762;2022-11-15T01:14:32;100663.63;;;10.63;84.19
9009;BME280;62813;51.424;6.762;2022-11-15T01:16:59;100672.00;;;10.69;84.27
9009;BME280;62813;51.424;6.762;2022-11-15T01:19:25;100671.06;;;10.72;83.98
9009;BME280;62813;51.424;6.762;2022-11-15T01:21:52;100669.06;;;10.77;84.38
9009;BME280;62813;51.424;6.762;2022-11-15T01:24:18;100667.28;;;10.79;84.05
9009;BME280;62813;51.424;6.762;2022-11-15T01:26:45;100676.00;;;10.78;84.17
9009;BME280;62813;51.424;6.762;2022-11-15T01:29:11;100669.81;;;10.80;84.47
9009;BME280;62813;51.424;6.762;2022-11-15T01:31:38;100659.50;;;10.79;84.41
9009;BME280;62813;51.424;6.762;2022-11-15T01:34:05;100660.25;;;10.81;84.58
9009;BME280;62813;51.424;6.762;2022-11-15T01:36:31;100657.34;;;10.88;84.45
9009;BME280;62813;51.424;6.762;2022-11-15T01:38:58;100651.16;;;10.91;84.03
9009;BME280;62813;51.424;6.762;2022-11-15T01:41:28;100653.81;;;10.89;84.58
9009;BME280;62813;51.424;6.762;2022-11-15T01:43:57;100642.47;;;10.92;84.17
9009;BME280;62813;51.424;6.762;2022-11-15T01:48:55;100638.31;;;10.88;84.75
9009;BME280;62813;51.424;6.762;2022-11-15T01:51:24;100637.41;;;10.89;84.51
9009;BME280;62813;51.424;6.762;2022-11-15T01:53:55;100633.13;;;10.88;84.68
9009;BME280;62813;51.424;6.762;2022-11-15T01:56:27;100638.31;;;10.88;84.89
9009;BME280;62813;51.424;6.762;2022-11-15T01:58:58;100641.81;;;10.87;84.52
9009;BME280;62813;51.424;6.762;2022-11-15T02:01:28;100638.25;;;10.89;84.94
9009;BME280;62813;51.424;6.762;2022-11-15T02:04:01;100639.91;;;10.91;84.92
9009;BME280;62813;51.424;6.762;2022-11-15T02:06:30;100636.41;;;10.93;84.60
9009;BME280;62813;51.424;6.762;2022-11-15T02:08:56;100628.69;;;10.90;85.14
9009;BME280;62813;51.424;6.762;2022-11-15T02:11:24;100626.91;;;10.92;84.88
9009;BME280;62813;51.424;6.762;2022-11-15T02:13:50;100628.59;;;10.93;84.94
9009;BME280;62813;51.424;6.762;2022-11-15T02:16:35;100619.06;;;10.94;85.09
9009;BME280;62813;51.424;6.762;2022-11-15T02:27:38;100606.41;;;11.05;84.59
9009;BME280;62813;51.424;6.762;2022-11-15T02:32:44;100604.88;;;11.01;84.94
9009;BME280;62813;51.424;6.762;2022-11-15T02:35:29;100611.69;;;11.03;85.03
9009;BME280;62813;51.424;6.762;2022-11-15T02:38:22;100615.84;;;11.07;84.94
9009;BME280;62813;51.424;6.762;2022-11-15T02:41:01;100614.84;;;11.10;84.81
9009;BME280;62813;51.424;6.762;2022-11-15T02:46:35;100624.13;;;11.15;84.96
9009;BME280;62813;51.424;6.762;2022-11-15T02:49:24;100606.72;;;11.18;84.70
9009;BME280;62813;51.424;6.762;2022-11-15T02:51:52;100606.50;;;11.22;85.00
9009;BME280;62813;51.424;6.762;2022-11-15T02:54:26;100603.84;;;11.24;84.90
9009;BME280;62813;51.424;6.762;2022-11-15T02:56:55;100597.59;;;11.28;84.79
9009;BME280;62813;51.424;6.762;2022-11-15T03:04:57;100605.44;;;11.26;84.59
9009;BME280;62813;51.424;6.762;2022-11-15T03:07:30;100606.28;;;11.27;84.61
9009;BME280;62813;51.424;6.762;2022-11-15T03:10:06;100605.31;;;11.29;84.45
9009;BME280;62813;51.424;6.762;2022-11-15T03:12:43;100608.84;;;11.28;84.98
9009;BME280;62813;51.424;6.762;2022-11-15T03:15:24;100600.97;;;11.30;84.55
9009;BME280;62813;51.424;6.762;2022-11-15T03:18:03;100595.75;;;11.30;84.94
9009;BME280;62813;51.424;6.762;2022-11-15T03:20:31;100603.47;;;11.31;84.71
9009;BME280;62813;51.424;6.762;2022-11-15T03:23:06;100595.47;;;11.36;84.69
9009;BME280;62813;51.424;6.762;2022-11-15T03:25:40;100593.81;;;11.35;84.77
9009;BME280;62813;51.424;6.762;2022-11-15T03:28:09;100593.66;;;11.38;84.82
9009;BME280;62813;51.424;6.762;2022-11-15T03:30:38;100592.88;;;11.36;85.12
9009;BME280;62813;51.424;6.762;2022-11-15T03:33:06;100590.97;;;11.39;84.96
9009;BME280;62813;51.424;6.762;2022-11-15T03:35:38;100590.00;;;11.42;85.03
9009;BME280;62813;51.424;6.762;2022-11-15T03:38:21;100589.94;;;11.43;84.78
9009;BME280;62813;51.424;6.762;2022-11-15T03:41:00;100585.56;;;11.44;85.06
9009;BME280;62813;51.424;6.762;2022-11-15T03:46:27;100585.28;;;11.50;84.80
9009;BME280;62813;51.424;6.762;2022-11-15T03:49:09;100587.72;;;11.53;84.82
9009;BME280;62813;51.424;6.762;2022-11-15T03:51:37;100584.19;;;11.54;84.88
9009;BME280;62813;51.424;6.762;2022-11-15T03:54:04;100585.75;;;11.58;84.71
9009;BME280;62813;51.424;6.762;2022-11-15T03:56:30;100577.03;;;11.59;84.86
9009;BME280;62813;51.424;6.762;2022-11-15T03:58:57;100577.88;;;11.60;84.89
9009;BME280;62813;51.424;6.762;2022-11-15T04:01:23;100570.25;;;11.57;85.06
9009;BME280;62813;51.424;6.762;2022-11-15T04:03:50;100575.44;;;11.57;85.52
9009;BME280;62813;51.424;6.762;2022-11-15T04:06:17;100576.28;;;11.57;85.38
9009;BME280;62813;51.424;6.762;2022-11-15T04:08:43;100570.16;;;11.58;85.46
9009;BME280;62813;51.424;6.762;2022-11-15T04:11:10;100567.56;;;11.58;85.33
9009;BME280;62813;51.424;6.762;2022-11-15T04:13:36;100571.00;;;11.59;85.75
9009;BME280;62813;51.424;6.762;2022-11-15T04:16:03;100570.84;;;11.62;85.78
9009;BME280;62813;51.424;6.762;2022-11-15T04:18:29;100570.63;;;11.66;85.55
9009;BME280;62813;51.424;6.762;2022-11-15T04:20:56;100569.78;;;11.66;85.10
9009;BME280;62813;51.424;6.762;2022-11-15T04:23:41;100560.97;;;11.68;84.94
9009;BME280;62813;51.424;6.762;2022-11-15T04:26:33;100568.94;;;11.65;85.17
9009;BME280;62813;51.424;6.762;2022-11-15T04:29:00;100567.03;;;11.69;85.36
9009;BME280;62813;51.424;6.762;2022-11-15T04:31:45;100562.69;;;11.69;85.36
9009;BME280;62813;51.424;6.762;2022-11-15T04:34:12;100556.41;;;11.74;84.90
9009;BME280;62813;51.424;6.762;2022-11-15T04:36:38;100571.00;;;11.76;84.95
9009;BME280;62813;51.424;6.762;2022-11-15T04:39:23;100567.56;;;11.76;84.83
9009;BME280;62813;51.424;6.762;2022-11-15T04:41:50;100568.41;;;11.76;85.09
9009;BME280;62813;51.424;6.762;2022-11-15T04:44:16;100564.91;;;11.77;84.75
9009;BME280;62813;51.424;6.762;2022-11-15T04:46:43;100562.06;;;11.82;84.68
9009;BME280;62813;51.424;6.762;2022-11-15T04:49:09;100568.06;;;11.84;84.58
9009;BME280;62813;51.424;6.762;2022-11-15T04:51:36;100574.03;;;11.86;84.49
9009;BME280;62813;51.424;6.762;2022-11-15T04:54:02;100568.97;;;11.83;84.49
9009;BME280;62813;51.424;6.762;2022-11-15T04:56:29;100565.47;;;11.84;84.57
9009;BME280;62813;51.424;6.762;2022-11-15T04:58:55;100570.59;;;11.85;84.77
9009;BME280;62813;51.424;6.762;2022-11-15T05:01:22;100570.50;;;11.87;84.67
9009;BME280;62813;51.424;6.762;2022-11-15T05:03:49;100562.63;;;11.88;84.77
9009;BME280;62813;51.424;6.762;2022-11-15T05:06:34;100565.94;;;11.92;84.39
9009;BME280;62813;51.424;6.762;2022-11-15T05:09:01;100566.59;;;11.95;84.35
9009;BME280;62813;51.424;6.762;2022-11-15T05:11:28;100562.09;;;11.99;83.92
9009;BME280;62813;51.424;6.762;2022-11-15T05:13:55;100562.94;;;12.00;83.64
9009;BME280;62813;51.424;6.762;2022-11-15T05:16:21;100566.50;;;11.97;83.89
9009;BME280;62813;51.424;6.762;2022-11-15T05:18:52;100569.13;;;11.97;84.16
9009;BME280;62813;51.424;6.762;2022-11-15T05:21:19;100562.31;;;11.94;84.41
9009;BME280;62813;51.424;6.762;2022-11-15T05:23:45;100559.94;;;11.90;84.58
9009;BME280;62813;51.424;6.762;2022-11-15T05:26:12;100563.25;;;11.93;84.77
9009;BME280;62813;51.424;6.762;2022-11-15T05:28:39;100556.56;;;11.88;84.50
9009;BME280;62813;51.424;6.762;2022-11-15T05:31:14;100555.56;;;11.90;85.05
9009;BME280;62813;51.424;6.762;2022-11-15T05:33:43;100556.44;;;11.91;85.11
9009;BME280;62813;51.424;6.762;2022-11-15T05:36:21;100559.94;;;11.90;84.61
9009;BME280;62813;51.424;6.762;2022-11-15T05:38:51;100554.91;;;11.87;85.43
9009;BME280;62813;51.424;6.762;2022-11-15T05:41:20;100552.38;;;11.85;85.21
9009;BME280;62813;51.424;6.762;2022-11-15T05:43:48;100552.50;;;11.82;85.35
9009;BME280;62813;51.424;6.762;2022-11-15T05:46:17;100556.75;;;11.85;85.36
9009;BME280;62813;51.424;6.762;2022-11-15T05:48:46;100555.94;;;11.83;85.71
9009;BME280;62813;51.424;6.762;2022-11-15T05:51:17;100549.88;;;11.84;85.68
9009;BME280;62813;51.424;6.762;2022-11-15T05:55:41;100556.75;;;11.85;85.49
9009;BME280;62813;51.424;6.762;2022-11-15T05:58:09;100554.69;;;11.91;85.72
9009;BME280;62813;51.424;6.762;2022-11-15T06:00:36;100557.41;;;11.88;85.66
9009;BME280;62813;51.424;6.762;2022-11-15T06:03:02;100549.53;;;11.90;85.57
9009;BME280;62813;51.424;6.762;2022-11-15T06:05:29;100553.97;;;11.88;85.42
9009;BME280;62813;51.424;6.762;2022-11-15T06:07:59;100554.16;;;11.85;85.91
9009;BME280;62813;51.424;6.762;2022-11-15T06:10:26;100555.06;;;11.84;85.63
9009;BME280;62813;51.424;6.762;2022-11-15T06:13:05;100562.69;;;11.87;85.78
9009;BME280;62813;51.424;6.762;2022-11-15T06:15:32;100560.19;;;11.85;86.06
9009;BME280;62813;51.424;6.762;2022-11-15T06:18:00;100562.91;;;11.82;85.63
9009;BME280;62813;51.424;6.762;2022-11-15T06:20:28;100574.03;;;11.86;86.22
9009;BME280;62813;51.424;6.762;2022-11-15T06:23:03;100567.97;;;11.85;85.94
9009;BME280;62813;51.424;6.762;2022-11-15T06:25:31;100570.66;;;11.84;86.11
9009;BME280;62813;51.424;6.762;2022-11-15T06:27:58;100566.31;;;11.84;85.73
9009;BME280;62813;51.424;6.762;2022-11-15T06:30:26;100572.41;;;11.83;85.96
9009;BME280;62813;51.424;6.762;2022-11-15T06:32:59;100569.78;;;11.83;86.05
9009;BME280;62813;51.424;6.762;2022-11-15T06:35:27;100572.25;;;11.86;85.92
9009;BME280;62813;51.424;6.762;2022-11-15T06:37:53;100570.41;;;11.88;85.64
9009;BME280;62813;51.424;6.762;2022-11-15T06:40:20;100579.22;;;11.86;85.58
9009;BME280;62813;51.424;6.762;2022-11-15T06:42:46;100574.94;;;11.85;85.59
9009;BME280;62813;51.424;6.762;2022-11-15T06:45:13;100578.53;;;11.82;85.60
9009;BME280;62813;51.424;6.762;2022-11-15T06:47:45;100579.22;;;11.86;85.68
9009;BME280;62813;51.424;6.762;2022-11-15T06:50:12;100585.19;;;11.88;85.82
9009;BME280;62813;51.424;6.762;2022-11-15T06:52:39;100575.69;;;11.87;85.80
9009;BME280;62813;51.424;6.762;2022-11-15T06:55:06;100580.75;;;11.90;85.98
9009;BME280;62813;51.424;6.762;2022-11-15T06:57:32;100588.63;;;11.88;85.69
9009;BME280;62813;51.424;6.762;2022-11-15T06:59:59;100584.44;;;11.86;86.08
9009;BME280;62813;51.424;6.762;2022-11-15T07:02:26;100586.03;;;11.88;86.11
9009;BME280;62813;51.424;6.762;2022-11-15T07:04:52;100589.34;;;11.92;85.98
9009;BME280;62813;51.424;6.762;2022-11-15T07:07:19;100593.63;;;11.93;85.78
9009;BME280;62813;51.424;6.762;2022-11-15T07:09:46;100598.94;;;11.90;85.75
9009;BME280;62813;51.424;6.762;2022-11-15T07:12:13;100605.63;;;11.95;85.44
9009;BME280;62813;51.424;6.762;2022-11-15T07:14:39;100602.94;;;11.97;85.80
9009;BME280;62813;51.424;6.762;2022-11-15T07:17:06;100612.50;;;11.96;85.40
9009;BME280;62813;51.424;6.762;2022-11-15T07:19:32;100610.06;;;11.93;85.45
9009;BME280;62813;51.424;6.762;2022-11-15T07:21:59;100613.22;;;12.00;85.18
9009;BME280;62813;51.424;6.762;2022-11-15T07:24:25;100622.78;;;12.00;85.33
9009;BME280;62813;51.424;6.762;2022-11-15T07:26:52;100623.44;;;12.03;84.61
9009;BME280;62813;51.424;6.762;2022-11-15T07:29:19;100621.78;;;12.02;84.77
9009;BME280;62813;51.424;6.762;2022-11-15T07:31:45;100632.16;;;12.02;84.47
9009;BME280;62813;51.424;6.762;2022-11-15T07:34:12;100631.41;;;12.00;84.99
9009;BME280;62813;51.424;6.762;2022-11-15T07:36:39;100627.72;;;12.04;84.73
9009;BME280;62813;51.424;6.762;2022-11-15T07:39:05;100628.50;;;12.06;83.98
9009;BME280;62813;51.424;6.762;2022-11-15T07:41:32;100640.59;;;12.07;83.81
9009;BME280;62813;51.424;6.762;2022-11-15T07:43:58;100638.13;;;12.04;84.30
9009;BME280;62813;51.424;6.762;2022-11-15T07:46:25;100640.75;;;12.04;84.13
9009;BME280;62813;51.424;6.762;2022-11-15T07:48:52;100641.53;;;12.06;83.72
9009;BME280;62813;51.424;6.762;2022-11-15T07:51:19;100644.50;;;12.16;81.71
9009;BME280;62813;51.424;6.762;2022-11-15T07:53:46;100648.72;;;12.18;80.24
9009;BME280;62813;51.424;6.762;2022-11-15T07:56:12;100668.63;;;12.19;79.64
9009;BME280;62813;51.424;6.762;2022-11-15T07:58:39;100663.47;;;12.18;78.95
9009;BME280;62813;51.424;6.762;2022-11-15T08:01:08;100675.19;;;12.09;79.20
9009;BME280;62813;51.424;6.762;2022-11-15T08:03:36;100682.53;;;12.01;81.43
9009;BME280;62813;51.424;6.762;2022-11-15T08:06:03;100686.63;;;11.88;82.43
9009;BME280;62813;51.424;6.762;2022-11-15T08:08:30;100679.34;;;11.77;83.88
9009;BME280;62813;51.424;6.762;2022-11-15T08:10:59;100690.09;;;11.69;83.96
9009;BME280;62813;51.424;6.762;2022-11-15T08:13:26;100691.28;;;11.62;85.02
9009;BME280;62813;51.424;6.762;2022-11-15T08:16:00;100680.19;;;11.59;84.99
9009;BME280;62813;51.424;6.762;2022-11-15T08:21:02;100676.09;;;11.53;86.28
9009;BME280;62813;51.424;6.762;2022-11-15T08:23:29;100676.03;;;11.55;86.43
9009;BME280;62813;51.424;6.762;2022-11-15T08:26:01;100682.97;;;11.54;86.45
9009;BME280;62813;51.424;6.762;2022-11-15T08:28:28;100680.47;;;11.53;86.57
9009;BME280;62813;51.424;6.762;2022-11-15T08:30:55;100680.19;;;11.59;86.60
9009;BME280;62813;51.424;6.762;2022-11-15T08:33:22;100678.13;;;11.65;86.55
9009;BME280;62813;51.424;6.762;2022-11-15T08:35:48;100666.91;;;11.65;86.00
9009;BME280;62813;51.424;6.762;2022-11-15T08:38:15;100669.41;;;11.66;85.99
9009;BME280;62813;51.424;6.762;2022-11-15T08:40:42;100667.75;;;11.65;85.86
9009;BME280;62813;51.424;6.762;2022-11-15T08:43:08;100655.59;;;11.66;85.44
9009;BME280;62813;51.424;6.762;2022-11-15T08:45:35;100658.09;;;11.67;85.52
9009;BME280;62813;51.424;6.762;2022-11-15T08:48:03;100654.59;;;11.68;85.73
9009;BME280;62813;51.424;6.762;2022-11-15T08:50:29;100646.75;;;11.70;85.70
9009;BME280;62813;51.424;6.762;2022-11-15T08:52:56;100653.53;;;11.73;85.66
9009;BME280;62813;51.424;6.762;2022-11-15T08:55:23;100649.25;;;11.72;85.43
9009;BME280;62813;51.424;6.762;2022-11-15T08:57:50;100645.75;;;11.73;85.73
9009;BME280;62813;51.424;6.762;2022-11-15T09:00:17;100640.53;;;11.73;85.75
9009;BME280;62813;51.424;6.762;2022-11-15T09:02:46;100632.75;;;11.73;85.39
9009;BME280;62813;51.424;6.762;2022-11-15T09:05:13;100635.25;;;11.74;85.70
9009;BME280;62813;51.424;6.762;2022-11-15T09:07:39;100634.34;;;11.75;85.36
9009;BME280;62813;51.424;6.762;2022-11-15T09:10:06;100629.84;;;11.79;85.16
9009;BME280;62813;51.424;6.762;2022-11-15T09:12:33;100625.63;;;11.76;85.36
9009;BME280;62813;51.424;6.762;2022-11-15T09:15:00;100624.66;;;11.79;85.09
9009;BME280;62813;51.424;6.762;2022-11-15T09:17:26;100624.19;;;11.88;84.77
9009;BME280;62813;51.424;6.762;2022-11-15T09:19:53;100622.69;;;12.01;84.32
9009;BME280;62813;51.424;6.762;2022-11-15T09:22:19;100629.44;;;12.22;84.20
9009;BME280;62813;51.424;6.762;2022-11-15T09:24:46;100625.53;;;12.48;83.21
9009;BME280;62813;51.424;6.762;2022-11-15T09:27:12;100627.31;;;12.65;82.32
9009;BME280;62813;51.424;6.762;2022-11-15T09:29:39;100620.09;;;12.70;81.24
9009;BME280;62813;51.424;6.762;2022-11-15T09:32:06;100625.00;;;12.76;80.93
9009;BME280;62813;51.424;6.762;2022-11-15T09:34:32;100620.00;;;12.72;79.35
9009;BME280;62813;51.424;6.762;2022-11-15T09:36:59;100622.53;;;12.73;80.15
9009;BME280;62813;51.424;6.762;2022-11-15T09:39:26;100622.44;;;12.75;78.68
9009;BME280;62813;51.424;6.762;2022-11-15T09:45:26;100609.28;;;12.78;76.76
9009;BME280;62813;51.424;6.762;2022-11-15T09:48:13;100607.34;;;12.82;76.17
9009;BME280;62813;51.424;6.762;2022-11-15T09:50:48;100603.38;;;12.74;74.42
9009;BME280;62813;51.424;6.762;2022-11-15T09:53:26;100590.22;;;12.77;74.36
9009;BME280;62813;51.424;6.762;2022-11-15T09:56:26;100577.34;;;12.74;73.69
9009;BME280;62813;51.424;6.762;2022-11-15T10:01:47;100573.22;;;12.70;73.79
9009;BME280;62813;51.424;6.762;2022-11-15T10:04:17;100572.91;;;12.76;73.10
9009;BME280;62813;51.424;6.762;2022-11-15T10:12:19;100553.91;;;12.74;71.81
9009;BME280;62813;51.424;6.762;2022-11-15T10:14:47;100551.16;;;12.77;71.18
9009;BME280;62813;51.424;6.762;2022-11-15T10:21:02;100556.19;;;12.80;69.68
9009;BME280;62813;51.424;6.762;2022-11-15T10:23:26;100558.53;;;12.85;68.82
9009;BME280;62813;51.424;6.762;2022-11-15T10:25:59;100547.19;;;12.86;69.27
9009;BME280;62813;51.424;6.762;2022-11-15T10:28:31;100544.78;;;12.83;69.32
9009;BME280;62813;51.424;6.762;2022-11-15T10:31:00;100544.00;;;12.81;69.16
9009;BME280;62813;51.424;6.762;2022-11-15T10:33:36;100526.28;;;12.88;68.82
9009;BME280;62813;51.424;6.762;2022-11-15T10:44:17;100514.25;;;13.01;66.14
9009;BME280;62813;51.424;6.762;2022-11-15T10:49:23;100516.34;;;13.10;65.49
9009;BME280;62813;51.424;6.762;2022-11-15T10:52:18;100513.75;;;13.10;65.32
9009;BME280;62813;51.424;6.762;2022-11-15T10:54:49;100493.59;;;13.14;65.62
9009;BME280;62813;51.424;6.762;2022-11-15T10:57:19;100504.50;;;13.20;65.11
9009;BME280;62813;51.424;6.762;2022-11-15T10:59:48;100497.63;;;13.19;65.08
9009;BME280;62813;51.424;6.762;2022-11-15T11:04:57;100494.53;;;13.13;64.90
9009;BME280;62813;51.424;6.762;2022-11-15T11:07:28;100492.56;;;13.16;64.82
9009;BME280;62813;51.424;6.762;2022-11-15T11:10:03;100498.56;;;13.18;63.29
9009;BME280;62813;51.424;6.762;2022-11-15T11:12:48;100491.72;;;13.16;62.28
9009;BME280;62813;51.424;6.762;2022-11-15T11:15:15;100484.00;;;13.14;62.39
9009;BME280;62813;51.424;6.762;2022-11-15T11:17:51;100482.31;;;13.13;61.82
9009;BME280;62813;51.424;6.762;2022-11-15T11:20:38;100484.00;;;13.14;61.14
9009;BME280;62813;51.424;6.762;2022-11-15T11:29:26;100475.84;;;13.20;60.28
9009;BME280;62813;51.424;6.762;2022-11-15T11:32:15;100480.13;;;13.21;60.31
9009;BME280;62813;51.424;6.762;2022-11-15T11:34:57;100466.50;;;13.16;59.84
9009;BME280;62813;51.424;6.762;2022-11-15T11:37:51;100469.94;;;13.17;60.22
9009;BME280;62813;51.424;6.762;2022-11-15T11:43:06;100463.34;;;13.11;58.59
9009;BME280;62813;51.424;6.762;2022-11-15T11:48:15;100459.63;;;13.15;58.79
9009;BME280;62813;51.424;6.762;2022-11-15T11:50:47;100469.13;;;13.16;58.55
9009;BME280;62813;51.424;6.762;2022-11-15T11:53:21;100463.75;;;13.19;59.00
9009;BME280;62813;51.424;6.762;2022-11-15T11:55:58;100454.91;;;13.22;58.86
9009;BME280;62813;51.424;6.762;2022-11-15T11:58:36;100452.22;;;13.23;59.01
9009;BME280;62813;51.424;6.762;2022-11-15T12:01:25;100450.38;;;13.25;58.61
9009;BME280;62813;51.424;6.762;2022-11-15T12:09:38;100442.47;;;13.27;57.79
9009;BME280;62813;51.424;6.762;2022-11-15T12:12:19;100441.28;;;13.32;57.00
9009;BME280;62813;51.424;6.762;2022-11-15T12:14:55;100435.72;;;13.39;56.68
9009;BME280;62813;51.424;6.762;2022-11-15T12:17:26;100442.25;;;13.46;56.56
9009;BME280;62813;51.424;6.762;2022-11-15T12:30:49;100399.06;;;13.56;55.29
9009;BME280;62813;51.424;6.762;2022-11-15T12:33:37;100389.47;;;13.56;54.91
9009;BME280;62813;51.424;6.762;2022-11-15T12:36:29;100390.97;;;13.60;54.64
9009;BME280;62813;51.424;6.762;2022-11-15T12:39:06;100393.66;;;13.59;54.88
9009;BME280;62813;51.424;6.762;2022-11-15T12:41:39;100383.78;;;13.64;54.51
9009;BME280;62813;51.424;6.762;2022-11-15T12:44:56;100384.94;;;13.74;54.35
9009;BME280;62813;51.424;6.762;2022-11-15T12:47:21;100374.88;;;13.82;53.28
9009;BME280;62813;51.424;6.762;2022-11-15T12:49:49;100362.97;;;13.93;53.30
9009;BME280;62813;51.424;6.762;2022-11-15T12:52:16;100351.31;;;13.98;52.89
9009;BME280;62813;51.424;6.762;2022-11-15T12:54:50;100344.81;;;14.05;52.83
9009;BME280;62813;51.424;6.762;2022-11-15T13:02:41;100327.25;;;14.22;52.48
9009;BME280;62813;51.424;6.762;2022-11-15T13:12:58;100315.72;;;14.53;53.01
9009;BME280;62813;51.424;6.762;2022-11-15T13:20:53;100305.16;;;14.27;55.04
9009;BME280;62813;51.424;6.762;2022-11-15T13:23:27;100303.59;;;14.10;55.11
9009;BME280;62813;51.424;6.762;2022-11-15T13:25:57;100304.81;;;14.05;55.89
9009;BME280;62813;51.424;6.762;2022-11-15T13:28:36;100303.16;;;14.04;57.19
9009;BME280;62813;51.424;6.762;2022-11-15T13:31:30;100298.09;;;14.01;56.30
9009;BME280;62813;51.424;6.762;2022-11-15T13:34:13;100297.94;;;14.04;56.59
9009;BME280;62813;51.424;6.762;2022-11-15T13:37:02;100290.47;;;13.98;56.55
9009;BME280;62813;51.424;6.762;2022-11-15T13:39:32;100284.88;;;13.89;56.25
9009;BME280;62813;51.424;6.762;2022-11-15T13:41:59;100290.09;;;13.89;56.20
9009;BME280;62813;51.424;6.762;2022-11-15T13:44:28;100276.97;;;13.91;56.78
9009;BME280;62813;51.424;6.762;2022-11-15T13:47:05;100273.31;;;13.94;56.46
9009;BME280;62813;51.424;6.762;2022-11-15T13:49:33;100267.38;;;13.92;56.62
9009;BME280;62813;51.424;6.762;2022-11-15T13:52:03;100256.72;;;13.95;57.06
9009;BME280;62813;51.424;6.762;2022-11-15T13:57:05;100249.16;;;14.19;61.60
9009;BME280;62813;51.424;6.762;2022-11-15T13:59:45;100247.44;;;14.32;61.86
9009;BME280;62813;51.424;6.762;2022-11-15T14:02:17;100244.44;;;14.51;63.24
9009;BME280;62813;51.424;6.762;2022-11-15T14:04:57;100242.25;;;14.57;60.07
9009;BME280;62813;51.424;6.762;2022-11-15T14:07:26;100228.19;;;14.60;59.34
9009;BME280;62813;51.424;6.762;2022-11-15T14:09:57;100227.34;;;14.59;57.69
9009;BME280;62813;51.424;6.762;2022-11-15T14:14:56;100223.28;;;14.28;57.76
9009;BME280;62813;51.424;6.762;2022-11-15T14:19:56;100220.16;;;14.23;57.50
9009;BME280;62813;51.424;6.762;2022-11-15T14:22:26;100213.44;;;14.19;58.26
9009;BME280;62813;51.424;6.762;2022-11-15T14:27:36;100211.13;;;14.14;57.86
9009;BME280;62813;51.424;6.762;2022-11-15T14:30:03;100200.06;;;14.11;57.76
9009;BME280;62813;51.424;6.762;2022-11-15T14:32:49;100200.63;;;14.02;58.36
9009;BME280;62813;51.424;6.762;2022-11-15T14:35:19;100201.03;;;13.96;58.72
9009;BME280;62813;51.424;6.762;2022-11-15T14:37:47;100191.34;;;13.83;59.16
9009;BME280;62813;51.424;6.762;2022-11-15T14:40:16;100192.56;;;13.78;59.45
9009;BME280;62813;51.424;6.762;2022-11-15T14:42:47;100181.88;;;13.68;60.33
9009;BME280;62813;51.424;6.762;2022-11-15T14:45:19;100181.59;;;13.58;60.87
9009;BME280;62813;51.424;6.762;2022-11-15T14:47:46;100175.91;;;13.52;61.29
9009;BME280;62813;51.424;6.762;2022-11-15T14:50:15;100182.06;;;13.51;61.46
9009;BME280;62813;51.424;6.762;2022-11-15T14:52:42;100176.22;;;13.47;61.66
9009;BME280;62813;51.424;6.762;2022-11-15T14:55:16;100171.84;;;13.48;62.25
9009;BME280;62813;51.424;6.762;2022-11-15T14:57:44;100164.66;;;13.51;61.83
9009;BME280;62813;51.424;6.762;2022-11-15T15:00:12;100170.06;;;13.48;62.38
9009;BME280;62813;51.424;6.762;2022-11-15T15:02:41;100165.69;;;13.49;62.47
9009;BME280;62813;51.424;6.762;2022-11-15T15:05:12;100157.13;;;13.47;63.00
9009;BME280;62813;51.424;6.762;2022-11-15T15:07:39;100148.38;;;13.48;63.07
9009;BME280;62813;51.424;6.762;2022-11-15T15:10:06;100146.59;;;13.48;63.28
9009;BME280;62813;51.424;6.762;2022-11-15T15:12:53;100140.84;;;13.43;63.28